createdAt,value
2023-02-05T00:01:41.696Z,-1.05
2023-02-05T00:04:08.975Z,-0.89
2023-02-05T00:06:36.257Z,-0.77
2023-02-05T00:09:04.953Z,-0.80
2023-02-05T00:11:32.396Z,-1.09
2023-02-05T00:13:59.872Z,-1.29
2023-02-05T00:16:27.140Z,-1.49
2023-02-05T00:18:54.869Z,-1.65
2023-02-05T00:21:22.826Z,-1.65
2023-02-05T00:23:50.694Z,-1.64
2023-02-05T00:26:19.314Z,-1.48
2023-02-05T00:28:46.765Z,-1.45
2023-02-05T00:31:15.365Z,-1.32
2023-02-05T00:33:42.999Z,-1.34
2023-02-05T00:36:12.673Z,-1.30
2023-02-05T00:38:41.464Z,-1.29
2023-02-05T00:41:08.733Z,-1.36
2023-02-05T00:43:37.311Z,-1.45
2023-02-05T00:46:04.601Z,-1.58
2023-02-05T00:48:31.882Z,-1.80
2023-02-05T00:50:59.456Z,-1.75
2023-02-05T00:53:26.975Z,-1.64
2023-02-05T00:55:54.264Z,-1.60
2023-02-05T00:58:21.892Z,-1.60
2023-02-05T01:00:51.095Z,-1.51
2023-02-05T01:03:18.413Z,-1.61
2023-02-05T01:05:45.956Z,-1.54
2023-02-05T01:08:13.740Z,-1.66
2023-02-05T01:10:44.193Z,-1.65
2023-02-05T01:13:11.466Z,-1.67
2023-02-05T01:15:38.901Z,-1.70
2023-02-05T01:18:07.611Z,-1.66
2023-02-05T01:20:37.221Z,-1.59
2023-02-05T01:23:04.643Z,-1.60
2023-02-05T01:25:32.156Z,-1.58
2023-02-05T01:27:59.684Z,-1.90
2023-02-05T01:30:26.947Z,-1.65
2023-02-05T01:32:54.200Z,-1.66
2023-02-05T01:35:22.782Z,-1.71
2023-02-05T01:37:50.054Z,-1.77
2023-02-05T01:40:18.004Z,-1.76
2023-02-05T01:42:45.709Z,-1.84
2023-02-05T01:45:32.818Z,-2.03
2023-02-05T01:48:01.317Z,-2.41
2023-02-05T01:50:33.014Z,-2.36
2023-02-05T01:53:02.766Z,-2.51
2023-02-05T01:55:31.054Z,-2.29
2023-02-05T01:57:59.855Z,-2.27
2023-02-05T02:00:27.220Z,-2.56
2023-02-05T02:02:54.769Z,-2.56
2023-02-05T02:05:22.065Z,-2.56
2023-02-05T02:07:50.673Z,-2.73
2023-02-05T02:10:18.918Z,-2.62
2023-02-05T02:12:47.451Z,-2.80
2023-02-05T02:15:17.216Z,-2.78
2023-02-05T02:17:46.567Z,-2.91
2023-02-05T02:20:15.459Z,-2.88
2023-02-05T02:22:47.399Z,-2.67
2023-02-05T02:25:25.333Z,-2.54
2023-02-05T02:27:58.059Z,-2.44
2023-02-05T02:30:27.307Z,-2.63
2023-02-05T02:32:59.100Z,-2.88
2023-02-05T02:35:28.322Z,-2.99
2023-02-05T02:37:59.323Z,-3.12
2023-02-05T02:40:30.250Z,-2.95
2023-02-05T02:43:04.617Z,-2.81
2023-02-05T02:45:35.307Z,-2.69
2023-02-05T02:48:04.388Z,-2.66
2023-02-05T02:50:34.660Z,-2.67
2023-02-05T02:53:04.517Z,-2.81
2023-02-05T02:55:36.040Z,-2.80
2023-02-05T02:58:05.337Z,-2.82
2023-02-05T03:00:33.012Z,-2.99
2023-02-05T03:03:03.054Z,-3.11
2023-02-05T03:05:31.080Z,-3.01
2023-02-05T03:08:00.366Z,-3.21
2023-02-05T03:10:33.026Z,-3.18
2023-02-05T03:13:00.404Z,-2.97
2023-02-05T03:15:29.045Z,-2.82
2023-02-05T03:17:56.451Z,-3.12
2023-02-05T03:20:27.010Z,-3.36
2023-02-05T03:22:54.404Z,-3.38
2023-02-05T03:25:22.449Z,-3.40
2023-02-05T03:27:52.012Z,-3.14
2023-02-05T03:30:19.410Z,-3.10
2023-02-05T03:32:56.086Z,-3.18
2023-02-05T03:35:30.522Z,-3.15
2023-02-05T03:38:07.050Z,-3.07
2023-02-05T03:40:39.008Z,-3.04
2023-02-05T03:43:11.085Z,-3.01
2023-02-05T03:45:44.284Z,-3.08
2023-02-05T03:48:35.480Z,-3.39
2023-02-05T03:51:08.886Z,-3.63
2023-02-05T03:53:38.294Z,-3.66
2023-02-05T03:56:07.249Z,-3.58
2023-02-05T03:58:36.651Z,-3.52
2023-02-05T04:01:04.762Z,-3.54
2023-02-05T04:03:33.484Z,-3.38
2023-02-05T04:06:00.879Z,-3.45
2023-02-05T04:08:28.161Z,-3.27
2023-02-05T04:10:55.435Z,-3.16
2023-02-05T04:13:22.700Z,-3.26
2023-02-05T04:15:50.074Z,-3.19
2023-02-05T04:18:17.385Z,-3.43
2023-02-05T04:20:46.247Z,-3.62
2023-02-05T04:23:13.546Z,-3.69
2023-02-05T04:25:41.496Z,-3.73
2023-02-05T04:28:08.936Z,-3.55
2023-02-05T04:30:36.296Z,-3.67
2023-02-05T04:33:03.643Z,-3.49
2023-02-05T04:35:30.899Z,-3.47
2023-02-05T04:37:59.494Z,-3.78
2023-02-05T04:40:26.786Z,-3.59
2023-02-05T04:42:54.076Z,-3.55
2023-02-05T04:45:21.422Z,-3.33
2023-02-05T04:47:48.829Z,-3.58
2023-02-05T04:50:16.206Z,-3.57
2023-02-05T04:52:43.465Z,-3.69
2023-02-05T04:55:12.062Z,-3.82
2023-02-05T04:57:39.337Z,-3.89
2023-02-05T05:00:07.070Z,-3.79
2023-02-05T05:02:34.701Z,-3.84
2023-02-05T05:05:02.016Z,-3.76
2023-02-05T05:07:30.720Z,-3.58
2023-02-05T05:09:57.992Z,-3.58
2023-02-05T05:12:26.589Z,-3.61
2023-02-05T05:14:53.845Z,-3.67
2023-02-05T05:17:21.116Z,-3.50
2023-02-05T05:19:48.384Z,-3.50
2023-02-05T05:22:15.633Z,-3.52
2023-02-05T05:24:42.893Z,-3.47
2023-02-05T05:27:10.173Z,-3.67
2023-02-05T05:29:38.808Z,-3.51
2023-02-05T05:32:06.160Z,-3.47
2023-02-05T05:34:33.445Z,-3.32
2023-02-05T05:37:00.685Z,-3.36
2023-02-05T05:39:45.374Z,-3.27
2023-02-05T05:42:30.065Z,-3.23
2023-02-05T05:44:58.682Z,-3.16
2023-02-05T05:47:25.988Z,-3.16
2023-02-05T05:49:53.592Z,-3.11
2023-02-05T05:52:20.855Z,-3.22
2023-02-05T05:54:48.093Z,-3.25
2023-02-05T05:57:15.352Z,-3.30
2023-02-05T05:59:42.635Z,-3.30
2023-02-05T06:02:11.247Z,-3.29
2023-02-05T06:04:38.576Z,-3.23
2023-02-05T06:07:05.905Z,-3.30
2023-02-05T06:09:33.166Z,-3.30
2023-02-05T06:12:00.601Z,-3.20
2023-02-05T06:14:27.897Z,-3.11
2023-02-05T06:16:55.794Z,-3.11
2023-02-05T06:19:24.389Z,-3.31
2023-02-05T06:21:51.686Z,-3.43
2023-02-05T06:24:18.933Z,-3.29
2023-02-05T06:26:46.187Z,-3.17
2023-02-05T06:29:13.460Z,-3.25
2023-02-05T06:31:41.234Z,-3.31
2023-02-05T06:34:08.564Z,-3.38
2023-02-05T06:36:37.190Z,-3.20
2023-02-05T06:39:04.539Z,-3.17
2023-02-05T06:41:31.785Z,-3.15
2023-02-05T06:43:59.034Z,-3.13
2023-02-05T06:46:26.407Z,-3.18
2023-02-05T06:48:53.708Z,-3.01
2023-02-05T06:51:20.965Z,-3.15
2023-02-05T06:53:49.537Z,-3.15
2023-02-05T06:56:16.780Z,-3.38
2023-02-05T06:58:44.033Z,-3.44
2023-02-05T07:01:11.614Z,-3.43
2023-02-05T07:03:38.903Z,-3.35
2023-02-05T07:06:07.158Z,-3.26
2023-02-05T07:08:34.445Z,-3.10
2023-02-05T07:11:03.158Z,-3.05
2023-02-05T07:13:31.024Z,-2.92
2023-02-05T07:15:58.351Z,-2.91
2023-02-05T07:18:25.750Z,-2.73
2023-02-05T07:20:53.027Z,-2.57
2023-02-05T07:23:20.276Z,-2.40
2023-02-05T07:25:47.512Z,-2.28
2023-02-05T07:28:16.137Z,-2.16
2023-02-05T07:30:43.462Z,-2.03
2023-02-05T07:33:10.767Z,-1.92
2023-02-05T07:35:39.291Z,-1.86
2023-02-05T07:38:06.611Z,-1.60
2023-02-05T07:40:33.897Z,-1.52
2023-02-05T07:43:01.195Z,-1.36
2023-02-05T07:45:29.819Z,-1.15
2023-02-05T07:47:57.102Z,-1.33
2023-02-05T07:50:24.669Z,-1.28
2023-02-05T07:52:51.931Z,-1.18
2023-02-05T07:55:19.282Z,-1.36
2023-02-05T07:57:46.984Z,-1.29
2023-02-05T08:00:14.540Z,-1.40
2023-02-05T08:02:43.150Z,-1.21
2023-02-05T08:05:10.448Z,-1.11
2023-02-05T08:07:38.247Z,-1.11
2023-02-05T08:10:05.844Z,-1.07
2023-02-05T08:12:33.107Z,-1.05
2023-02-05T08:15:00.376Z,-0.88
2023-02-05T08:17:27.663Z,-0.88
2023-02-05T08:19:56.248Z,-0.93
2023-02-05T08:22:23.539Z,-0.94
2023-02-05T08:24:50.797Z,-1.02
2023-02-05T08:27:18.048Z,-0.86
2023-02-05T08:29:47.530Z,-0.88
2023-02-05T08:32:14.791Z,-0.70
2023-02-05T08:34:42.076Z,-0.76
2023-02-05T08:37:10.711Z,-0.83
2023-02-05T08:39:38.299Z,-0.96
2023-02-05T08:42:05.632Z,-0.94
2023-02-05T08:44:32.893Z,-0.66
2023-02-05T08:47:00.209Z,-0.71
2023-02-05T08:49:27.497Z,-0.61
2023-02-05T08:51:54.803Z,-0.47
2023-02-05T08:54:23.412Z,-0.49
2023-02-05T08:56:51.230Z,-0.49
2023-02-05T08:59:18.580Z,-0.42
2023-02-05T09:01:46.320Z,-0.60
2023-02-05T09:04:14.240Z,-0.55
2023-02-05T09:06:41.715Z,-0.50
2023-02-05T09:09:09.230Z,-0.43
2023-02-05T09:11:37.820Z,-0.40
2023-02-05T09:14:06.241Z,-0.59
2023-02-05T09:16:33.851Z,-0.48
2023-02-05T09:19:01.191Z,-0.33
2023-02-05T09:21:28.815Z,-0.24
2023-02-05T09:23:57.332Z,-0.43
2023-02-05T09:26:25.190Z,-0.45
2023-02-05T09:28:53.788Z,-0.51
2023-02-05T09:31:21.903Z,-0.45
2023-02-05T09:33:49.331Z,-0.43
2023-02-05T09:36:17.709Z,-0.44
2023-02-05T09:38:45.648Z,-0.36
2023-02-05T09:41:18.357Z,-0.36
2023-02-05T09:43:50.145Z,-0.31
2023-02-05T09:46:22.868Z,-0.16
2023-02-05T09:48:55.647Z,0.01
2023-02-05T09:51:26.576Z,0.09
2023-02-05T09:53:56.134Z,0.28
2023-02-05T09:56:25.181Z,0.40
2023-02-05T09:58:52.950Z,0.55
2023-02-05T10:01:28.636Z,0.67
2023-02-05T10:03:57.510Z,0.89
2023-02-05T10:06:31.886Z,0.96
2023-02-05T10:09:02.416Z,1.07
2023-02-05T10:11:35.078Z,1.13
2023-02-05T10:14:05.928Z,1.22
2023-02-05T10:16:48.147Z,1.25
2023-02-05T10:19:26.746Z,1.22
2023-02-05T10:22:10.963Z,1.33
2023-02-05T10:24:46.003Z,1.53
2023-02-05T10:27:17.676Z,1.55
2023-02-05T10:29:50.103Z,1.65
2023-02-05T10:32:21.141Z,1.68
2023-02-05T10:34:56.334Z,1.76
2023-02-05T10:37:28.665Z,1.90
2023-02-05T10:39:57.160Z,1.96
2023-02-05T10:42:29.637Z,2.13
2023-02-05T10:45:00.782Z,1.98
2023-02-05T10:47:39.901Z,2.07
2023-02-05T10:50:16.737Z,2.20
2023-02-05T10:52:44.009Z,2.11
2023-02-05T10:55:12.188Z,2.28
2023-02-05T10:57:39.481Z,2.18
2023-02-05T11:00:08.591Z,2.23
2023-02-05T11:02:38.909Z,2.26
2023-02-05T11:05:10.063Z,2.29
2023-02-05T11:07:41.815Z,2.36
2023-02-05T11:10:16.243Z,2.51
2023-02-05T11:12:44.520Z,2.66
2023-02-05T11:15:20.113Z,2.61
2023-02-05T11:17:51.261Z,2.58
2023-02-05T11:20:32.404Z,2.70
2023-02-05T11:23:09.296Z,2.78
2023-02-05T11:25:36.571Z,2.93
2023-02-05T11:28:05.509Z,2.83
2023-02-05T11:30:50.820Z,2.91
2023-02-05T11:33:23.196Z,2.89
2023-02-05T11:35:53.180Z,2.97
2023-02-05T11:38:29.910Z,2.74
2023-02-05T11:40:59.374Z,2.74
2023-02-05T11:43:28.407Z,2.65
2023-02-05T11:45:57.101Z,2.71
2023-02-05T11:48:29.321Z,2.67
2023-02-05T11:50:56.631Z,2.68
2023-02-05T11:53:25.722Z,2.54
2023-02-05T11:55:54.520Z,2.57
2023-02-05T11:58:34.893Z,2.62
2023-02-05T12:01:04.198Z,2.72
2023-02-05T12:03:32.843Z,2.91
2023-02-05T12:06:04.528Z,2.80
2023-02-05T12:08:38.916Z,2.83
2023-02-05T12:11:20.399Z,2.71
2023-02-05T12:13:54.596Z,2.92
2023-02-05T12:16:29.463Z,2.92
2023-02-05T12:19:02.458Z,3.07
2023-02-05T12:21:36.165Z,3.00
2023-02-05T12:24:28.831Z,2.97
2023-02-05T12:27:00.999Z,2.95
2023-02-05T12:29:40.920Z,2.96
2023-02-05T12:32:16.698Z,3.06
2023-02-05T12:34:50.333Z,3.07
2023-02-05T12:37:21.430Z,3.25
2023-02-05T12:39:53.319Z,3.03
2023-02-05T12:42:30.012Z,3.08
2023-02-05T12:45:03.943Z,3.08
2023-02-05T12:47:40.198Z,3.13
2023-02-05T12:50:15.422Z,2.99
2023-02-05T12:52:47.509Z,2.92
2023-02-05T12:55:24.949Z,2.97
2023-02-05T12:57:54.204Z,2.89
2023-02-05T13:00:23.704Z,2.89
2023-02-05T13:02:55.124Z,2.80
2023-02-05T13:05:27.498Z,2.85
2023-02-05T13:08:00.796Z,2.78
2023-02-05T13:10:32.105Z,2.74
2023-02-05T13:13:01.255Z,2.77
2023-02-05T13:15:31.844Z,2.69
2023-02-05T13:18:02.451Z,2.65
2023-02-05T13:20:50.310Z,2.65
2023-02-05T13:23:37.404Z,2.73
2023-02-05T13:26:24.380Z,2.59
2023-02-05T13:28:54.932Z,2.67
2023-02-05T13:31:25.766Z,2.62
2023-02-05T13:33:54.424Z,2.61
2023-02-05T13:36:35.593Z,2.63
2023-02-05T13:39:11.262Z,2.50
2023-02-05T13:41:52.347Z,2.51
2023-02-05T13:44:28.078Z,2.56
2023-02-05T13:47:19.312Z,2.58
2023-02-05T13:49:56.753Z,2.63
2023-02-05T13:52:31.772Z,2.62
2023-02-05T13:55:19.716Z,2.67
2023-02-05T13:58:05.721Z,2.66
2023-02-05T14:00:34.691Z,2.67
2023-02-05T14:03:05.537Z,2.67
2023-02-05T14:05:33.905Z,2.80
2023-02-05T14:08:03.204Z,2.80
2023-02-05T14:10:31.486Z,2.98
2023-02-05T14:13:12.999Z,3.00
2023-02-05T14:15:42.489Z,3.07
2023-02-05T14:18:11.753Z,2.99
2023-02-05T14:20:41.546Z,3.01
2023-02-05T14:23:38.907Z,3.02
2023-02-05T14:26:12.765Z,3.04
2023-02-05T14:28:47.263Z,3.03
2023-02-05T14:31:33.404Z,3.08
2023-02-05T14:34:28.030Z,3.00
2023-02-05T14:36:55.863Z,2.91
2023-02-05T14:39:26.990Z,2.90
2023-02-05T14:41:58.852Z,2.81
2023-02-05T14:44:28.074Z,2.72
2023-02-05T14:47:00.947Z,2.65
2023-02-05T14:49:30.173Z,2.61
2023-02-05T14:52:00.406Z,2.54
2023-02-05T14:54:28.971Z,2.48
2023-02-05T14:57:10.846Z,2.38
2023-02-05T14:59:40.902Z,2.40
2023-02-05T15:02:41.816Z,2.44
2023-02-05T15:05:19.749Z,2.31
2023-02-05T15:07:51.755Z,2.30
2023-02-05T15:10:21.814Z,2.20
2023-02-05T15:12:56.632Z,2.21
2023-02-05T15:15:27.914Z,2.14
2023-02-05T15:17:57.955Z,2.06
2023-02-05T15:20:27.304Z,2.08
2023-02-05T15:22:57.245Z,1.99
2023-02-05T15:25:34.032Z,1.93
2023-02-05T15:28:07.164Z,1.98
2023-02-05T15:30:48.503Z,1.93
2023-02-05T15:33:18.486Z,1.92
2023-02-05T15:35:47.366Z,1.76
2023-02-05T15:38:21.993Z,1.87
2023-02-05T15:40:50.873Z,1.66
2023-02-05T15:43:21.037Z,1.69
2023-02-05T15:45:48.629Z,1.75
2023-02-05T15:48:18.218Z,1.80
2023-02-05T15:50:48.443Z,1.55
2023-02-05T15:53:27.755Z,1.50
2023-02-05T15:55:55.025Z,1.64
2023-02-05T15:58:25.446Z,1.60
2023-02-05T16:00:53.592Z,1.57
2023-02-05T16:03:28.533Z,1.39
2023-02-05T16:05:55.822Z,1.39
2023-02-05T16:08:23.966Z,1.37
2023-02-05T16:10:57.632Z,1.27
2023-02-05T16:13:27.142Z,1.17
2023-02-05T16:15:59.820Z,1.50
2023-02-05T16:18:32.670Z,1.91
2023-02-05T16:21:02.330Z,2.32
2023-02-05T16:23:33.195Z,2.55
2023-02-05T16:26:02.915Z,2.71
2023-02-05T16:28:35.506Z,2.70
2023-02-05T16:31:03.642Z,2.99
2023-02-05T16:33:34.609Z,2.99
2023-02-05T16:36:03.372Z,2.77
2023-02-05T16:38:30.932Z,2.69
2023-02-05T16:41:00.205Z,2.36
2023-02-05T16:43:30.037Z,2.17
2023-02-05T16:46:15.579Z,2.37
2023-02-05T16:48:49.294Z,2.13
2023-02-05T16:51:27.811Z,2.07
2023-02-05T16:53:55.125Z,1.84
2023-02-05T16:56:24.245Z,1.34
2023-02-05T16:58:53.510Z,1.03
2023-02-05T17:01:23.525Z,1.34
2023-02-05T17:03:52.167Z,1.37
2023-02-05T17:06:20.968Z,1.43
2023-02-05T17:08:52.458Z,0.96
2023-02-05T17:11:33.985Z,0.78
2023-02-05T17:14:12.161Z,1.07
2023-02-05T17:16:40.616Z,0.74
2023-02-05T17:19:23.505Z,0.58
2023-02-05T17:22:15.014Z,0.88
2023-02-05T17:24:44.289Z,0.76
2023-02-05T17:27:14.892Z,0.50
2023-02-05T17:29:42.276Z,0.15
2023-02-05T17:32:15.935Z,-0.06
2023-02-05T17:34:46.679Z,0.41
2023-02-05T17:37:14.545Z,0.05
2023-02-05T17:39:45.688Z,-0.08
2023-02-05T17:42:19.984Z,0.26
2023-02-05T17:44:47.347Z,0.78
2023-02-05T17:47:15.021Z,0.84
2023-02-05T17:49:42.746Z,0.40
2023-02-05T17:52:10.682Z,0.19
2023-02-05T17:54:38.345Z,0.27
2023-02-05T17:57:12.787Z,0.60
2023-02-05T17:59:44.900Z,0.45
2023-02-05T18:02:12.809Z,0.31
2023-02-05T18:04:41.042Z,0.01
2023-02-05T18:07:19.680Z,0.19
2023-02-05T18:09:46.951Z,0.26
2023-02-05T18:12:14.226Z,-0.08
2023-02-05T18:14:42.829Z,-0.31
2023-02-05T18:17:10.076Z,-0.50
2023-02-05T18:19:37.348Z,-0.77
2023-02-05T18:22:06.827Z,-0.77
2023-02-05T18:24:36.863Z,-0.91
2023-02-05T18:29:57.013Z,-0.82
2023-02-05T18:32:24.358Z,-0.62
2023-02-05T18:34:51.991Z,-0.64
2023-02-05T18:37:19.635Z,-0.60
2023-02-05T18:39:47.922Z,-0.91
2023-02-05T18:42:15.480Z,-1.17
2023-02-05T18:44:42.779Z,-1.30
2023-02-05T18:47:11.423Z,-1.35
2023-02-05T18:49:38.804Z,-1.25
2023-02-05T18:52:07.141Z,-1.47
2023-02-05T18:54:34.947Z,-1.58
2023-02-05T18:57:05.664Z,-1.43
2023-02-05T18:59:33.064Z,-1.47
2023-02-05T19:02:00.338Z,-1.39
2023-02-05T19:04:32.877Z,-1.60
2023-02-05T19:07:00.584Z,-1.60
2023-02-05T19:09:28.405Z,-1.45
2023-02-05T19:11:56.237Z,-1.25
2023-02-05T19:14:24.590Z,-1.27
2023-02-05T19:16:52.387Z,-1.06
2023-02-05T19:19:20.962Z,-1.27
2023-02-05T19:21:53.518Z,-1.52
2023-02-05T19:24:21.444Z,-1.56
2023-02-05T19:26:49.915Z,-1.62
2023-02-05T19:29:18.575Z,-1.70
2023-02-05T19:31:46.352Z,-1.72
2023-02-05T19:34:14.030Z,-1.45
2023-02-05T19:36:41.730Z,-1.40
2023-02-05T19:39:11.821Z,-1.61
2023-02-05T19:41:39.839Z,-1.92
2023-02-05T19:44:07.770Z,-1.83
2023-02-05T19:46:36.669Z,-1.56
2023-02-05T19:49:05.180Z,-1.73
2023-02-05T19:51:32.853Z,-1.78
2023-02-05T19:54:02.920Z,-1.80
2023-02-05T19:56:37.666Z,-1.76
2023-02-05T19:59:05.599Z,-1.82
2023-02-05T20:01:35.665Z,-1.65
2023-02-05T20:04:07.244Z,-1.99
2023-02-05T20:06:34.550Z,-2.18
2023-02-05T20:09:02.309Z,-2.21
2023-02-05T20:11:30.142Z,-2.16
2023-02-05T20:14:00.674Z,-1.97
2023-02-05T20:16:27.929Z,-2.07
2023-02-05T20:18:56.161Z,-2.17
2023-02-05T20:21:24.133Z,-2.22
2023-02-05T20:23:51.949Z,-2.13
2023-02-05T20:26:21.733Z,-2.33
2023-02-05T20:29:08.072Z,-2.33
2023-02-05T20:31:41.473Z,-2.39
2023-02-05T20:34:09.816Z,-2.46
2023-02-05T20:36:37.783Z,-2.63
2023-02-05T20:39:06.600Z,-2.26
2023-02-05T20:41:34.217Z,-2.40
2023-02-05T20:44:01.574Z,-2.57
2023-02-05T20:46:28.858Z,-2.79
2023-02-05T20:48:59.212Z,-2.68
2023-02-05T20:51:26.559Z,-2.84
2023-02-05T20:53:56.931Z,-2.91
2023-02-05T20:56:24.514Z,-2.80
2023-02-05T20:58:51.770Z,-2.94
2023-02-05T21:01:19.840Z,-3.12
2023-02-05T21:03:48.920Z,-3.24
2023-02-05T21:06:18.080Z,-2.90
2023-02-05T21:08:46.480Z,-2.83
2023-02-05T21:11:14.255Z,-2.91
2023-02-05T21:13:41.860Z,-2.92
2023-02-05T21:16:09.706Z,-2.92
2023-02-05T21:18:38.080Z,-3.05
2023-02-05T21:21:06.529Z,-3.29
2023-02-05T21:23:35.183Z,-3.27
2023-02-05T21:26:02.755Z,-3.20
2023-02-05T21:28:30.409Z,-2.91
2023-02-05T21:31:04.249Z,-2.98
2023-02-05T21:33:31.645Z,-2.89
2023-02-05T21:36:02.964Z,-3.17
2023-02-05T21:38:31.775Z,-3.46
2023-02-05T21:41:00.371Z,-3.58
2023-02-05T21:43:27.612Z,-3.58
2023-02-05T22:00:26.902Z,-3.40
2023-02-05T22:02:54.180Z,-3.52
2023-02-05T22:05:21.429Z,-3.65
2023-02-05T22:07:48.728Z,-3.73
2023-02-05T22:10:16.509Z,-3.84
2023-02-05T22:12:43.780Z,-3.92
2023-02-05T22:15:13.262Z,-3.84
2023-02-05T22:17:42.156Z,-3.82
2023-02-05T22:20:09.978Z,-3.87
2023-02-05T22:22:37.304Z,-3.92
2023-02-05T22:25:04.615Z,-3.90
2023-02-05T22:27:32.394Z,-3.52
2023-02-05T22:29:59.737Z,-3.82
2023-02-05T22:32:29.100Z,-4.01
2023-02-05T22:35:00.713Z,-4.12
2023-02-05T22:37:29.435Z,-4.17
2023-02-05T22:39:56.674Z,-4.09
2023-02-05T22:42:24.785Z,-4.18
2023-02-05T22:44:52.033Z,-4.28
2023-02-05T22:47:19.293Z,-4.30
2023-02-05T22:49:46.570Z,-4.35
2023-02-05T22:52:15.140Z,-4.36
2023-02-05T22:54:42.497Z,-4.39
2023-02-05T22:57:09.738Z,-4.45
2023-02-05T22:59:36.987Z,-4.23
2023-02-05T23:02:04.547Z,-4.14
2023-02-05T23:04:31.806Z,-4.03
2023-02-05T23:06:59.190Z,-4.09
2023-02-05T23:09:27.788Z,-4.16
2023-02-05T23:11:55.375Z,-3.80
2023-02-05T23:14:22.648Z,-3.75
2023-02-05T23:16:49.919Z,-3.91
2023-02-05T23:19:18.328Z,-3.93
2023-02-05T23:21:45.990Z,-3.79
2023-02-05T23:24:13.780Z,-4.06
2023-02-05T23:26:44.247Z,-3.85
2023-02-05T23:29:13.011Z,-4.16
2023-02-05T23:31:40.360Z,-3.97
2023-02-05T23:34:08.286Z,-4.26
2023-02-05T23:36:35.574Z,-4.35
2023-02-05T23:39:03.173Z,-4.30
2023-02-05T23:41:36.583Z,-4.09
2023-02-05T23:44:06.800Z,-4.22
2023-02-05T23:46:34.393Z,-4.21
2023-02-05T23:49:01.656Z,-4.43
2023-02-05T23:51:28.932Z,-4.58
2023-02-05T23:53:56.207Z,-4.42
2023-02-05T23:56:23.603Z,-4.46
2023-02-05T23:58:50.878Z,-4.38
